Time;durP1;ratioP1;P1;durP2;ratioP2;P2;SDS_P1;SDS_P2;PMS_P1;PMS_P2;Temp;Humidity;BMP_temperature;BMP_pressure;BME280_temperature;BME280_humidity;BME280_pressure;Samples;Min_cycle;Max_cycle;Signal;HPM_P1;HPM_P2
2021/08/15 00:00:08;;;;;;;7.88;3.28;;;;;;;;;;5110059;28;20126;-69
2021/08/15 00:02:34;;;;;;;5.20;3.25;;;;;;;;;;5109828;28;20051;-68
2021/08/15 00:05:02;;;;;;;7.72;4.03;;;;;;;;;;5110183;28;20031;-69
2021/08/15 00:07:29;;;;;;;6.43;3.95;;;;;;;;;;5110093;28;20496;-68
2021/08/15 00:09:55;;;;;;;5.75;3.53;;;;;;;;;;5109755;28;20024;-68
2021/08/15 00:12:21;;;;;;;7.25;4.07;;;;;;;;;;5099703;28;20020;-68
2021/08/15 00:14:47;;;;;;;7.85;4.20;;;;;;;;;;5096770;28;20024;-67
2021/08/15 00:17:13;;;;;;;7.25;3.65;;;;;;;;;;5096050;28;20362;-67
2021/08/15 00:19:40;;;;;;;7.85;3.45;;;;;;;;;;5096230;28;20395;-69
2021/08/15 00:22:06;;;;;;;6.47;3.85;;;;;;;;;;5096502;28;20099;-68
2021/08/15 00:24:36;;;;;;;5.95;3.55;;;;;;;;;;5095858;28;20063;-66
2021/08/15 00:27:03;;;;;;;4.90;3.17;;;;;;;;;;5096154;28;20028;-66
2021/08/15 00:29:29;;;;;;;5.82;3.45;;;;;;;;;;5095802;28;20100;-65
2021/08/15 00:31:55;;;;;;;8.48;3.95;;;;;;;;;;5096049;28;20476;-66
2021/08/15 00:34:21;;;;;;;7.20;3.70;;;;;;;;;;5096043;28;20028;-65
2021/08/15 00:36:47;;;;;;;8.90;4.15;;;;;;;;;;5095795;28;20095;-65
2021/08/15 00:40:59;;;;;;;5.53;3.30;;;;;;;;;;5111490;27;20393;-65
2021/08/15 00:43:52;;;;;;;7.32;3.72;;;;;;;;;;5111279;27;20406;-66
2021/08/15 00:46:18;;;;;;;10.05;4.35;;;;;;;;;;5111261;28;20028;-66
2021/08/15 00:48:44;;;;;;;7.35;4.18;;;;;;;;;;5110031;28;20131;-65
2021/08/15 00:51:10;;;;;;;6.32;4.00;;;;;;;;;;5110962;28;20020;-66
2021/08/15 00:54:30;;;;;;;6.97;3.72;;;;;;;;;;5071591;28;20407;-67
2021/08/15 00:56:57;;;;;;;6.70;3.70;;;;;;;;;;5071062;28;20025;-67
2021/08/15 00:59:23;;;;;;;5.30;3.38;;;;;;;;;;5070354;28;20055;-67
2021/08/15 01:01:53;;;;;;;6.15;3.65;;;;;;;;;;5070854;28;20485;-67
2021/08/15 01:04:23;;;;;;;7.88;3.92;;;;;;;;;;5070612;28;20082;-67
2021/08/15 01:06:49;;;;;;;6.60;3.28;;;;;;;;;;5068881;28;20035;-67
2021/08/15 01:09:15;;;;;;;6.90;3.47;;;;;;;;;;5070737;28;20104;-67
2021/08/15 01:11:42;;;;;;;7.30;3.72;;;;;;;;;;5070093;28;20024;-67
2021/08/15 01:14:08;;;;;;;7.15;4.18;;;;;;;;;;5070474;28;20071;-67
2021/08/15 01:16:35;;;;;;;5.60;3.50;;;;;;;;;;5070555;28;20017;-67
2021/08/15 01:19:01;;;;;;;7.57;3.72;;;;;;;;;;5070364;28;20028;-67
2021/08/15 01:21:27;;;;;;;6.93;3.83;;;;;;;;;;5070626;28;20070;-67
2021/08/15 01:23:54;;;;;;;9.25;4.78;;;;;;;;;;5070223;28;20029;-67
2021/08/15 01:26:21;;;;;;;7.20;4.38;;;;;;;;;;5069955;28;20016;-67
2021/08/15 01:28:47;;;;;;;8.32;4.30;;;;;;;;;;5070417;28;20100;-67
2021/08/15 01:31:14;;;;;;;7.15;4.00;;;;;;;;;;5070288;28;20086;-67
2021/08/15 01:33:40;;;;;;;6.35;3.50;;;;;;;;;;5069884;28;20039;-67
2021/08/15 01:36:07;;;;;;;7.28;3.70;;;;;;;;;;5068726;28;20027;-67
2021/08/15 01:38:35;;;;;;;6.38;3.40;;;;;;;;;;5069985;28;20025;-67
2021/08/15 01:41:02;;;;;;;6.53;3.75;;;;;;;;;;5068309;28;20021;-67
2021/08/15 01:43:55;;;;;;;8.13;3.85;;;;;;;;;;5111750;27;20385;-66
2021/08/15 01:46:45;;;;;;;6.60;3.78;;;;;;;;;;5111756;27;20385;-69
2021/08/15 01:49:11;;;;;;;7.93;4.22;;;;;;;;;;5110927;28;20020;-65
2021/08/15 01:51:38;;;;;;;7.65;3.08;;;;;;;;;;5111333;28;20028;-67
2021/08/15 01:54:04;;;;;;;8.20;3.83;;;;;;;;;;5110878;28;20081;-66
2021/08/15 01:56:30;;;;;;;7.78;4.22;;;;;;;;;;5111269;28;20016;-66
2021/08/15 01:58:57;;;;;;;7.10;3.67;;;;;;;;;;5111272;28;20498;-67
2021/08/15 02:01:24;;;;;;;6.70;3.97;;;;;;;;;;5110925;28;20028;-66
2021/08/15 02:03:50;;;;;;;8.35;3.88;;;;;;;;;;5110995;28;20024;-67
2021/08/15 02:06:17;;;;;;;8.57;4.07;;;;;;;;;;5109672;28;20032;-67
2021/08/15 02:08:44;;;;;;;6.97;3.80;;;;;;;;;;5110594;28;20015;-66
2021/08/15 02:13:00;;;;;;;7.30;4.22;;;;;;;;;;5112016;27;20392;-65
2021/08/15 02:15:26;;;;;;;8.65;4.13;;;;;;;;;;5111160;28;20023;-66
2021/08/15 02:19:48;;;;;;;6.93;4.38;;;;;;;;;;5111676;27;20510;-66
2021/08/15 02:22:15;;;;;;;7.05;4.30;;;;;;;;;;5110947;28;20024;-67
2021/08/15 02:24:41;;;;;;;8.45;4.03;;;;;;;;;;5111272;28;20479;-66
2021/08/15 02:27:07;;;;;;;14.88;4.55;;;;;;;;;;5109962;28;20073;-66
2021/08/15 02:29:33;;;;;;;7.65;4.07;;;;;;;;;;5110835;28;20050;-66
2021/08/15 02:31:59;;;;;;;6.32;3.97;;;;;;;;;;5111119;28;20081;-66
2021/08/15 02:34:27;;;;;;;5.70;3.08;;;;;;;;;;5111106;28;20518;-67
2021/08/15 02:36:53;;;;;;;6.60;3.60;;;;;;;;;;5110994;28;20020;-66
2021/08/15 02:39:20;;;;;;;6.78;4.13;;;;;;;;;;5111001;28;20036;-66
2021/08/15 02:41:46;;;;;;;7.93;4.53;;;;;;;;;;5111100;28;20379;-66
2021/08/15 02:45:56;;;;;;;7.85;3.88;;;;;;;;;;5071595;28;20469;-65
2021/08/15 02:48:22;;;;;;;8.60;4.20;;;;;;;;;;5070877;28;20029;-66
2021/08/15 02:50:49;;;;;;;6.07;3.47;;;;;;;;;;5070346;28;20051;-65
2021/08/15 02:53:15;;;;;;;5.78;3.10;;;;;;;;;;5070765;28;20025;-66
2021/08/15 02:57:18;;;;;;;6.72;3.78;;;;;;;;;;5111761;27;20392;-65
2021/08/15 03:00:26;;;;;;;5.63;3.47;;;;;;;;;;5112130;27;20392;-66
2021/08/15 03:02:52;;;;;;;6.57;3.92;;;;;;;;;;5110056;28;20052;-68
2021/08/15 03:05:19;;;;;;;5.97;3.78;;;;;;;;;;5109695;28;20024;-65
2021/08/15 03:10:11;;;;;;;7.32;4.07;;;;;;;;;;5132583;27;20415;-67
2021/08/15 03:12:37;;;;;;;6.45;3.88;;;;;;;;;;5131496;28;20024;-66
2021/08/15 03:15:04;;;;;;;8.05;4.30;;;;;;;;;;5113416;28;20031;-66
2021/08/15 03:17:30;;;;;;;12.73;4.30;;;;;;;;;;5131733;28;20020;-66
2021/08/15 03:19:57;;;;;;;7.45;3.67;;;;;;;;;;5113007;28;20020;-66
2021/08/15 03:22:23;;;;;;;8.95;4.30;;;;;;;;;;5131640;28;20134;-66
2021/08/15 03:24:49;;;;;;;11.05;4.20;;;;;;;;;;5131646;28;20472;-66
2021/08/15 03:27:47;;;;;;;8.35;4.43;;;;;;;;;;5112210;27;20393;-65
2021/08/15 03:30:13;;;;;;;6.47;4.15;;;;;;;;;;5111295;28;20468;-66
2021/08/15 03:32:39;;;;;;;7.88;4.47;;;;;;;;;;5110871;28;20533;-66
2021/08/15 03:35:06;;;;;;;6.07;3.40;;;;;;;;;;5111354;28;20024;-66
2021/08/15 03:40:13;;;;;;;9.82;4.20;;;;;;;;;;5111434;27;20866;-66
2021/08/15 03:42:39;;;;;;;7.53;4.30;;;;;;;;;;5111586;28;20419;-66
2021/08/15 03:45:06;;;;;;;9.60;4.25;;;;;;;;;;5111320;28;20030;-65
2021/08/15 03:47:33;;;;;;;7.43;3.80;;;;;;;;;;5111142;28;20103;-68
2021/08/15 03:50:00;;;;;;;7.30;4.05;;;;;;;;;;5111174;28;20042;-66
2021/08/15 03:52:26;;;;;;;6.25;4.05;;;;;;;;;;5109929;28;20028;-66
2021/08/15 03:54:52;;;;;;;7.57;3.90;;;;;;;;;;5110772;28;20027;-68
2021/08/15 03:57:18;;;;;;;8.15;4.25;;;;;;;;;;5109771;28;20042;-66
2021/08/15 03:59:45;;;;;;;12.57;4.05;;;;;;;;;;5110991;28;20028;-66
2021/08/15 04:02:11;;;;;;;9.43;4.80;;;;;;;;;;5109304;28;20024;-66
2021/08/15 04:04:38;;;;;;;6.85;4.13;;;;;;;;;;5110885;28;20028;-66
2021/08/15 04:07:05;;;;;;;10.02;4.35;;;;;;;;;;5110868;28;20023;-66
2021/08/15 04:09:31;;;;;;;6.88;3.95;;;;;;;;;;5110593;28;20107;-67
2021/08/15 04:11:57;;;;;;;6.55;3.90;;;;;;;;;;5110792;28;20028;-66
2021/08/15 04:14:23;;;;;;;8.48;4.65;;;;;;;;;;5109476;28;20442;-66
2021/08/15 04:16:49;;;;;;;9.77;5.03;;;;;;;;;;5110234;28;20024;-66
2021/08/15 04:19:16;;;;;;;10.15;6.70;;;;;;;;;;5110599;28;20452;-67
2021/08/15 04:24:24;;;;;;;11.65;6.07;;;;;;;;;;5070890;28;20433;-65
2021/08/15 04:27:30;;;;;;;9.52;4.80;;;;;;;;;;5112165;27;20532;-65
2021/08/15 04:29:56;;;;;;;9.85;5.53;;;;;;;;;;5111133;28;20024;-66
2021/08/15 04:32:23;;;;;;;7.22;3.97;;;;;;;;;;5111292;28;20028;-65
2021/08/15 04:34:49;;;;;;;8.05;4.60;;;;;;;;;;5111278;28;20026;-66
2021/08/15 04:37:17;;;;;;;8.60;4.65;;;;;;;;;;5110758;28;20027;-66
2021/08/15 04:39:44;;;;;;;7.95;4.38;;;;;;;;;;5109937;28;20093;-68
2021/08/15 04:43:07;;;;;;;7.07;4.80;;;;;;;;;;5111606;27;20508;-66
2021/08/15 04:45:34;;;;;;;10.32;4.97;;;;;;;;;;5111374;28;20028;-66
2021/08/15 04:48:00;;;;;;;12.18;5.50;;;;;;;;;;5111269;28;20073;-67
2021/08/15 04:52:35;;;;;;;8.48;5.18;;;;;;;;;;5111912;27;20396;-66
2021/08/15 04:55:01;;;;;;;7.07;4.40;;;;;;;;;;5111462;28;20020;-67
2021/08/15 04:57:27;;;;;;;10.02;4.50;;;;;;;;;;5110844;28;20028;-67
2021/08/15 04:59:53;;;;;;;7.20;3.80;;;;;;;;;;5109978;28;20025;-67
2021/08/15 05:02:19;;;;;;;6.85;4.30;;;;;;;;;;5111237;28;20043;-67
2021/08/15 05:06:36;;;;;;;8.90;4.40;;;;;;;;;;5112094;27;20389;-65
2021/08/15 05:10:13;;;;;;;6.20;3.60;;;;;;;;;;5111987;27;20505;-65
2021/08/15 05:12:39;;;;;;;6.78;3.63;;;;;;;;;;5111019;28;20032;-66
2021/08/15 05:15:36;;;;;;;6.60;3.55;;;;;;;;;;5112194;27;20516;-65
2021/08/15 05:18:02;;;;;;;9.88;4.85;;;;;;;;;;5109621;28;20030;-66
2021/08/15 05:20:29;;;;;;;11.40;5.30;;;;;;;;;;5109979;28;20031;-66
2021/08/15 05:23:49;;;;;;;8.18;4.68;;;;;;;;;;5111607;27;20416;-66
2021/08/15 05:26:15;;;;;;;8.15;4.63;;;;;;;;;;5110931;28;20031;-67
2021/08/15 05:28:41;;;;;;;9.02;4.03;;;;;;;;;;5111760;28;20030;-67
2021/08/15 05:31:08;;;;;;;11.57;4.13;;;;;;;;;;5111286;28;20023;-66
2021/08/15 05:36:32;;;;;;;5.75;3.42;;;;;;;;;;5111947;27;20505;-67
2021/08/15 05:38:59;;;;;;;7.30;4.07;;;;;;;;;;5109642;28;20081;-67
2021/08/15 05:41:25;;;;;;;6.72;3.60;;;;;;;;;;5109978;28;20051;-67
2021/08/15 05:43:51;;;;;;;6.78;3.90;;;;;;;;;;5111295;28;20051;-68
2021/08/15 05:46:17;;;;;;;9.82;4.95;;;;;;;;;;5110993;28;20097;-68
2021/08/15 05:48:43;;;;;;;8.38;5.10;;;;;;;;;;5111352;28;20529;-67
2021/08/15 05:51:11;;;;;;;6.25;4.22;;;;;;;;;;5111222;28;20099;-69
2021/08/15 05:53:37;;;;;;;8.02;4.65;;;;;;;;;;5110970;28;20099;-67
2021/08/15 05:56:04;;;;;;;8.40;4.47;;;;;;;;;;5110961;28;20028;-67
2021/08/15 05:58:30;;;;;;;6.35;3.92;;;;;;;;;;5111017;28;20540;-68
2021/08/15 06:00:56;;;;;;;6.25;4.13;;;;;;;;;;5110575;28;20030;-67
2021/08/15 06:03:22;;;;;;;9.23;3.75;;;;;;;;;;5110910;28;20025;-68
2021/08/15 06:05:48;;;;;;;8.82;4.30;;;;;;;;;;5111001;28;20028;-67
2021/08/15 06:11:04;;;;;;;5.50;3.88;;;;;;;;;;5111792;27;20462;-66
2021/08/15 06:13:31;;;;;;;6.30;4.15;;;;;;;;;;5127170;28;20412;-67
2021/08/15 06:17:46;;;;;;;9.65;3.92;;;;;;;;;;5111571;27;20512;-66
2021/08/15 06:20:13;;;;;;;7.78;5.03;;;;;;;;;;5111510;28;20426;-67
2021/08/15 06:22:43;;;;;;;10.90;5.43;;;;;;;;;;5110977;28;20080;-66
2021/08/15 06:25:10;;;;;;;8.70;4.50;;;;;;;;;;5110068;28;20020;-67
2021/08/15 06:27:37;;;;;;;7.90;4.35;;;;;;;;;;5111155;28;20035;-66
2021/08/15 06:30:04;;;;;;;9.63;4.45;;;;;;;;;;5110858;28;20020;-67
2021/08/15 06:33:34;;;;;;;8.85;4.43;;;;;;;;;;5070878;28;20399;-67
2021/08/15 06:36:00;;;;;;;11.57;4.47;;;;;;;;;;5070391;28;20078;-67
2021/08/15 06:38:26;;;;;;;7.55;4.35;;;;;;;;;;5070799;28;20534;-67
2021/08/15 06:40:53;;;;;;;9.52;5.20;;;;;;;;;;5070744;28;20056;-67
2021/08/15 06:43:20;;;;;;;7.47;4.43;;;;;;;;;;5068951;28;20362;-67
2021/08/15 06:45:46;;;;;;;9.32;4.47;;;;;;;;;;5071099;28;20024;-66
2021/08/15 06:49:05;;;;;;;8.60;5.40;;;;;;;;;;5112167;27;20416;-67
2021/08/15 06:51:32;;;;;;;8.93;4.90;;;;;;;;;;5126714;28;20027;-67
2021/08/15 06:53:58;;;;;;;6.97;4.15;;;;;;;;;;5111257;28;20068;-67
2021/08/15 06:57:31;;;;;;;8.18;4.70;;;;;;;;;;5110964;27;20380;-67
2021/08/15 06:59:57;;;;;;;8.40;4.93;;;;;;;;;;5111469;28;20028;-67
2021/08/15 07:03:56;;;;;;;8.40;5.30;;;;;;;;;;5070419;28;20399;-66
2021/08/15 07:06:23;;;;;;;11.57;5.25;;;;;;;;;;5070804;28;20017;-67
2021/08/15 07:08:49;;;;;;;10.90;4.13;;;;;;;;;;5070733;28;20049;-67
2021/08/15 07:12:25;;;;;;;7.93;4.50;;;;;;;;;;5111039;27;20401;-67
2021/08/15 07:14:51;;;;;;;11.43;5.43;;;;;;;;;;5111312;28;20035;-67
2021/08/15 07:17:17;;;;;;;8.88;5.20;;;;;;;;;;5111303;28;20024;-67
2021/08/15 07:19:54;;;;;;;6.13;4.05;;;;;;;;;;5111881;27;20392;-66
2021/08/15 07:22:20;;;;;;;7.45;4.07;;;;;;;;;;5111334;28;20032;-66
2021/08/15 07:24:46;;;;;;;8.02;4.80;;;;;;;;;;5110841;28;20030;-66
2021/08/15 07:27:13;;;;;;;7.38;4.47;;;;;;;;;;5109960;28;20476;-66
2021/08/15 07:29:40;;;;;;;6.63;3.72;;;;;;;;;;5111154;28;20020;-66
2021/08/15 07:32:06;;;;;;;6.57;3.53;;;;;;;;;;5111141;28;20429;-66
2021/08/15 07:34:32;;;;;;;7.78;4.20;;;;;;;;;;5111428;28;20024;-66
2021/08/15 07:36:58;;;;;;;7.68;4.07;;;;;;;;;;5109719;28;20028;-66
2021/08/15 07:39:24;;;;;;;6.57;3.90;;;;;;;;;;5110594;28;20396;-67
2021/08/15 07:41:51;;;;;;;7.05;3.85;;;;;;;;;;5110836;28;20073;-66
2021/08/15 07:44:17;;;;;;;6.80;4.15;;;;;;;;;;5110856;28;20028;-67
2021/08/15 07:46:43;;;;;;;6.70;3.65;;;;;;;;;;5110275;28;20384;-67
2021/08/15 07:52:52;;;;;;;7.47;4.05;;;;;;;;;;5111573;27;20396;-66
2021/08/15 07:55:18;;;;;;;7.60;4.00;;;;;;;;;;5111513;28;20038;-66
2021/08/15 07:57:44;;;;;;;9.00;3.88;;;;;;;;;;5109790;28;20362;-66
2021/08/15 08:00:10;;;;;;;6.28;3.80;;;;;;;;;;5111086;28;20048;-66
2021/08/15 08:02:37;;;;;;;6.03;3.75;;;;;;;;;;5111358;28;20024;-66
2021/08/15 08:05:04;;;;;;;7.72;4.13;;;;;;;;;;5111149;28;20024;-67
2021/08/15 08:07:30;;;;;;;8.88;4.25;;;;;;;;;;5110809;28;20488;-67
2021/08/15 08:09:56;;;;;;;8.38;4.40;;;;;;;;;;5109739;28;20392;-67
2021/08/15 08:12:22;;;;;;;9.40;4.50;;;;;;;;;;5110909;28;20032;-67
2021/08/15 08:14:49;;;;;;;8.38;4.13;;;;;;;;;;5110609;28;20024;-67
2021/08/15 08:17:15;;;;;;;8.70;3.53;;;;;;;;;;5110960;28;20073;-68
2021/08/15 08:19:42;;;;;;;7.03;4.28;;;;;;;;;;5110889;28;20602;-68
2021/08/15 08:22:09;;;;;;;10.32;4.78;;;;;;;;;;5110386;28;20032;-68
2021/08/15 08:24:35;;;;;;;6.47;4.28;;;;;;;;;;5109520;28;20144;-67
2021/08/15 08:27:02;;;;;;;6.82;4.18;;;;;;;;;;5110712;28;20468;-67
2021/08/15 08:29:28;;;;;;;7.53;4.00;;;;;;;;;;5110347;28;20027;-67
2021/08/15 08:31:54;;;;;;;8.30;3.88;;;;;;;;;;5110866;28;20077;-68
2021/08/15 08:34:20;;;;;;;6.50;3.63;;;;;;;;;;5110759;28;20016;-68
2021/08/15 08:36:46;;;;;;;8.15;4.43;;;;;;;;;;5110216;28;20141;-67
2021/08/15 08:39:13;;;;;;;7.82;4.75;;;;;;;;;;5110752;28;20016;-67
2021/08/15 08:41:39;;;;;;;8.40;4.25;;;;;;;;;;5110791;28;20529;-67
2021/08/15 08:44:07;;;;;;;8.00;4.82;;;;;;;;;;5110028;28;20119;-67
2021/08/15 08:46:33;;;;;;;6.40;3.63;;;;;;;;;;5110641;28;20062;-67
2021/08/15 08:49:00;;;;;;;7.40;4.20;;;;;;;;;;5109971;28;20476;-67
2021/08/15 08:51:26;;;;;;;7.05;3.90;;;;;;;;;;5110089;28;20104;-67
2021/08/15 08:53:53;;;;;;;8.07;5.03;;;;;;;;;;5108958;28;20024;-67
2021/08/15 08:56:22;;;;;;;8.10;4.45;;;;;;;;;;5109846;28;20028;-67
2021/08/15 08:58:49;;;;;;;6.30;4.22;;;;;;;;;;5110156;28;20476;-67
2021/08/15 09:01:16;;;;;;;5.90;3.60;;;;;;;;;;5110132;28;20429;-67
2021/08/15 09:03:42;;;;;;;6.97;3.88;;;;;;;;;;5098895;28;20480;-67
2021/08/15 09:06:18;;;;;;;5.07;3.42;;;;;;;;;;5096421;28;20056;-67
2021/08/15 09:08:45;;;;;;;9.45;5.07;;;;;;;;;;5096573;28;20043;-67
2021/08/15 09:11:14;;;;;;;5.60;3.47;;;;;;;;;;5094593;28;20031;-67
2021/08/15 09:13:40;;;;;;;6.38;3.78;;;;;;;;;;5096333;28;20028;-66
2021/08/15 09:16:06;;;;;;;4.88;3.17;;;;;;;;;;5096215;28;20031;-66
2021/08/15 09:18:33;;;;;;;5.53;3.45;;;;;;;;;;5095784;28;20028;-66
2021/08/15 09:20:59;;;;;;;7.13;3.50;;;;;;;;;;5096110;28;20024;-66
2021/08/15 09:23:30;;;;;;;6.05;3.42;;;;;;;;;;5096048;28;20091;-66
2021/08/15 09:26:14;;;;;;;6.53;3.83;;;;;;;;;;5095647;28;20074;-66
2021/08/15 09:28:40;;;;;;;6.40;3.33;;;;;;;;;;5094762;28;20024;-66
2021/08/15 09:31:23;;;;;;;7.30;3.88;;;;;;;;;;5095410;28;20020;-66
2021/08/15 09:33:49;;;;;;;6.70;3.17;;;;;;;;;;5095990;28;20043;-66
2021/08/15 09:36:24;;;;;;;4.47;2.80;;;;;;;;;;5095970;28;20025;-66
2021/08/15 09:38:53;;;;;;;6.43;3.65;;;;;;;;;;5095402;28;20030;-66
2021/08/15 09:41:24;;;;;;;5.80;2.97;;;;;;;;;;5095704;28;20016;-66
2021/08/15 09:43:50;;;;;;;5.93;3.30;;;;;;;;;;5094694;28;20353;-66
2021/08/15 09:46:16;;;;;;;6.40;3.47;;;;;;;;;;5095302;28;20024;-66
2021/08/15 09:48:42;;;;;;;4.93;3.40;;;;;;;;;;5095592;28;20032;-66
2021/08/15 09:51:13;;;;;;;5.65;3.05;;;;;;;;;;5095292;28;20055;-67
2021/08/15 09:53:41;;;;;;;8.88;3.28;;;;;;;;;;5095059;28;20031;-66
2021/08/15 09:56:08;;;;;;;7.30;4.05;;;;;;;;;;5095714;28;20032;-66
2021/08/15 09:58:34;;;;;;;6.72;3.72;;;;;;;;;;5095394;28;20025;-66
2021/08/15 10:01:02;;;;;;;5.38;3.13;;;;;;;;;;5094921;28;20028;-66
2021/08/15 10:03:29;;;;;;;7.75;3.72;;;;;;;;;;5095267;28;20016;-66
2021/08/15 10:05:56;;;;;;;8.98;3.00;;;;;;;;;;5095447;28;20099;-66
2021/08/15 10:08:24;;;;;;;4.60;2.90;;;;;;;;;;5094801;28;20032;-67
2021/08/15 10:10:50;;;;;;;7.15;3.42;;;;;;;;;;5095260;28;20024;-67
2021/08/15 10:13:19;;;;;;;6.18;3.33;;;;;;;;;;5094685;28;20105;-67
2021/08/15 10:16:18;;;;;;;4.65;3.33;;;;;;;;;;5092768;28;20020;-67
2021/08/15 10:18:48;;;;;;;4.88;2.83;;;;;;;;;;5050261;28;20040;-67
2021/08/15 10:21:16;;;;;;;5.47;3.30;;;;;;;;;;5094868;28;20479;-67
2021/08/15 10:23:43;;;;;;;5.80;3.22;;;;;;;;;;5094909;28;20030;-67
2021/08/15 10:26:42;;;;;;;5.63;3.47;;;;;;;;;;5095137;28;20464;-67
2021/08/15 10:29:27;;;;;;;5.63;3.20;;;;;;;;;;5060763;28;20480;-67
2021/08/15 10:32:09;;;;;;;5.25;3.08;;;;;;;;;;5095218;28;20040;-67
2021/08/15 10:34:50;;;;;;;5.45;3.20;;;;;;;;;;5094586;28;20016;-67
2021/08/15 10:37:26;;;;;;;4.78;3.25;;;;;;;;;;5094621;28;20434;-67
2021/08/15 10:39:53;;;;;;;7.63;3.50;;;;;;;;;;5094645;28;20106;-67
2021/08/15 10:42:38;;;;;;;8.30;3.95;;;;;;;;;;5092896;28;20107;-67
2021/08/15 10:45:07;;;;;;;6.18;3.38;;;;;;;;;;5094479;28;20472;-66
2021/08/15 10:47:33;;;;;;;6.80;3.45;;;;;;;;;;5094694;28;20024;-66
2021/08/15 10:50:02;;;;;;;7.53;3.20;;;;;;;;;;5094094;28;20028;-66
2021/08/15 10:52:31;;;;;;;7.28;3.10;;;;;;;;;;5094236;28;20044;-66
2021/08/15 10:55:01;;;;;;;6.18;3.38;;;;;;;;;;5094302;28;20031;-67
2021/08/15 10:57:34;;;;;;;6.97;3.35;;;;;;;;;;5093913;28;20031;-67
2021/08/15 11:00:00;;;;;;;5.57;3.10;;;;;;;;;;5094220;28;20488;-67
2021/08/15 11:02:32;;;;;;;6.25;3.45;;;;;;;;;;5093910;28;20545;-67
2021/08/15 11:04:59;;;;;;;4.90;2.92;;;;;;;;;;5094214;28;20020;-67
2021/08/15 11:07:39;;;;;;;5.32;3.17;;;;;;;;;;5094051;28;20067;-66
2021/08/15 11:10:09;;;;;;;10.05;3.80;;;;;;;;;;5092363;28;20150;-67
2021/08/15 11:12:36;;;;;;;5.70;3.30;;;;;;;;;;5093923;28;20491;-66
2021/08/15 11:15:02;;;;;;;5.22;3.22;;;;;;;;;;5093915;28;20480;-67
2021/08/15 11:17:29;;;;;;;5.25;2.70;;;;;;;;;;5093560;28;20362;-67
2021/08/15 11:19:55;;;;;;;5.35;3.05;;;;;;;;;;5093970;28;20054;-67
2021/08/15 11:22:21;;;;;;;5.15;2.97;;;;;;;;;;5093787;28;20384;-67
2021/08/15 11:24:54;;;;;;;5.20;3.20;;;;;;;;;;5093433;28;20445;-67
2021/08/15 11:27:22;;;;;;;5.40;3.22;;;;;;;;;;5093644;28;20496;-67
2021/08/15 11:29:49;;;;;;;7.82;3.78;;;;;;;;;;5092470;28;20036;-67
2021/08/15 11:32:17;;;;;;;6.00;3.17;;;;;;;;;;5093269;28;20032;-67
2021/08/15 11:34:56;;;;;;;4.28;3.08;;;;;;;;;;5094258;28;20024;-67
2021/08/15 11:37:24;;;;;;;5.85;3.50;;;;;;;;;;5093698;28;20024;-67
2021/08/15 11:39:50;;;;;;;10.35;3.10;;;;;;;;;;5093275;28;20472;-67
2021/08/15 11:42:21;;;;;;;7.50;3.60;;;;;;;;;;5093654;28;20028;-67
2021/08/15 11:44:51;;;;;;;4.53;2.90;;;;;;;;;;5093345;28;20048;-67
2021/08/15 11:47:36;;;;;;;7.07;3.33;;;;;;;;;;5093848;28;20028;-67
2021/08/15 11:50:15;;;;;;;7.05;2.88;;;;;;;;;;5092306;28;20031;-67
2021/08/15 11:52:41;;;;;;;4.63;2.88;;;;;;;;;;5092904;28;20059;-67
2021/08/15 11:55:17;;;;;;;4.80;3.13;;;;;;;;;;5093488;28;20361;-67
2021/08/15 11:57:54;;;;;;;5.30;2.83;;;;;;;;;;5092240;28;20114;-67
2021/08/15 12:00:29;;;;;;;5.07;3.10;;;;;;;;;;5093151;28;20103;-67
2021/08/15 12:03:09;;;;;;;4.82;2.72;;;;;;;;;;5093443;28;20361;-67
2021/08/15 12:05:37;;;;;;;6.20;3.22;;;;;;;;;;5093673;28;20028;-67
2021/08/15 12:08:07;;;;;;;6.43;2.95;;;;;;;;;;5093950;28;20108;-66
2021/08/15 12:10:38;;;;;;;5.78;3.42;;;;;;;;;;5093312;28;20024;-66
2021/08/15 12:13:08;;;;;;;6.10;2.90;;;;;;;;;;5092969;28;20495;-66
2021/08/15 12:15:34;;;;;;;5.20;3.03;;;;;;;;;;5093348;28;20059;-66
2021/08/15 12:18:00;;;;;;;3.65;2.40;;;;;;;;;;5091899;28;20032;-67
2021/08/15 12:20:27;;;;;;;5.60;3.30;;;;;;;;;;5092993;28;20023;-66
2021/08/15 12:22:53;;;;;;;5.75;3.05;;;;;;;;;;5093587;28;20021;-67
2021/08/15 12:25:23;;;;;;;4.85;2.95;;;;;;;;;;5093377;28;20024;-66
2021/08/15 12:27:50;;;;;;;6.20;3.22;;;;;;;;;;5092975;28;20089;-66
2021/08/15 12:30:30;;;;;;;4.85;3.10;;;;;;;;;;5092099;28;20031;-67
2021/08/15 12:32:56;;;;;;;6.68;3.85;;;;;;;;;;5093108;28;20161;-66
2021/08/15 12:35:26;;;;;;;5.45;3.55;;;;;;;;;;5092830;28;20153;-66
2021/08/15 12:37:56;;;;;;;5.00;2.70;;;;;;;;;;5092784;28;20462;-66
2021/08/15 12:40:33;;;;;;;4.28;2.95;;;;;;;;;;5097058;28;20024;-67
2021/08/15 12:43:03;;;;;;;4.63;2.60;;;;;;;;;;5095333;28;20488;-67
2021/08/15 12:45:33;;;;;;;3.90;2.30;;;;;;;;;;5096870;28;20016;-67
2021/08/15 12:48:01;;;;;;;3.22;2.38;;;;;;;;;;5096459;28;20407;-66
2021/08/15 12:50:27;;;;;;;4.22;2.20;;;;;;;;;;5096572;28;20020;-67
2021/08/15 12:52:55;;;;;;;4.32;2.63;;;;;;;;;;5096582;28;20035;-67
2021/08/15 12:55:26;;;;;;;4.60;2.75;;;;;;;;;;5096272;28;20416;-67
2021/08/15 12:57:59;;;;;;;5.15;3.00;;;;;;;;;;5096610;28;20496;-68
2021/08/15 13:00:28;;;;;;;4.65;2.50;;;;;;;;;;5096548;28;20022;-67
2021/08/15 13:02:56;;;;;;;4.65;2.60;;;;;;;;;;5094810;28;20024;-67
2021/08/15 13:05:23;;;;;;;5.30;2.65;;;;;;;;;;5096454;28;20032;-66
2021/08/15 13:07:49;;;;;;;5.22;2.35;;;;;;;;;;5096352;28;20031;-66
2021/08/15 13:10:15;;;;;;;3.97;2.50;;;;;;;;;;5095985;28;20038;-66
2021/08/15 13:12:42;;;;;;;4.25;2.40;;;;;;;;;;5096110;28;20036;-66
2021/08/15 13:15:09;;;;;;;6.07;2.70;;;;;;;;;;5094941;28;20111;-67
2021/08/15 13:17:35;;;;;;;4.75;2.35;;;;;;;;;;5094492;28;20020;-66
2021/08/15 13:20:02;;;;;;;4.28;2.50;;;;;;;;;;5096176;28;20111;-67
2021/08/15 13:22:28;;;;;;;5.05;2.40;;;;;;;;;;5096110;28;20087;-67
2021/08/15 13:24:54;;;;;;;4.03;2.47;;;;;;;;;;5095619;28;20023;-67
2021/08/15 13:27:20;;;;;;;5.57;2.33;;;;;;;;;;5096038;28;20020;-67
2021/08/15 13:29:47;;;;;;;4.97;2.60;;;;;;;;;;5094738;28;20477;-67
2021/08/15 13:32:13;;;;;;;6.00;2.42;;;;;;;;;;5095521;28;20401;-67
2021/08/15 13:34:39;;;;;;;4.03;2.20;;;;;;;;;;5095966;28;20020;-67
2021/08/15 13:37:11;;;;;;;4.28;2.13;;;;;;;;;;5095464;28;20038;-67
2021/08/15 13:39:38;;;;;;;4.07;2.30;;;;;;;;;;5096019;28;20017;-67
2021/08/15 13:42:04;;;;;;;4.78;2.20;;;;;;;;;;5096031;28;20472;-67
2021/08/15 13:44:30;;;;;;;3.80;2.30;;;;;;;;;;5095553;28;20024;-67
2021/08/15 13:46:56;;;;;;;3.88;2.45;;;;;;;;;;5095673;28;20030;-66
2021/08/15 13:49:23;;;;;;;4.53;2.67;;;;;;;;;;5095439;28;20046;-66
2021/08/15 13:51:49;;;;;;;3.67;2.10;;;;;;;;;;5094921;28;20403;-66
2021/08/15 13:54:15;;;;;;;4.18;1.80;;;;;;;;;;5095524;28;20031;-66
2021/08/15 13:56:41;;;;;;;4.22;2.25;;;;;;;;;;5095461;28;20024;-66
2021/08/15 13:59:07;;;;;;;2.88;1.85;;;;;;;;;;5095024;28;20027;-66
2021/08/15 14:01:33;;;;;;;3.42;2.25;;;;;;;;;;5094051;28;20036;-66
2021/08/15 14:04:00;;;;;;;5.38;2.60;;;;;;;;;;5095465;28;20016;-67
2021/08/15 14:06:26;;;;;;;3.13;2.10;;;;;;;;;;5094837;28;20024;-66
2021/08/15 14:08:52;;;;;;;3.75;2.47;;;;;;;;;;5095237;28;20109;-66
2021/08/15 14:11:18;;;;;;;4.18;2.35;;;;;;;;;;5095425;28;20032;-66
2021/08/15 14:13:44;;;;;;;3.58;2.10;;;;;;;;;;5094806;28;20020;-67
2021/08/15 14:16:11;;;;;;;3.85;2.20;;;;;;;;;;5095349;28;20414;-67
2021/08/15 14:18:37;;;;;;;4.40;2.25;;;;;;;;;;5095398;28;20082;-66
2021/08/15 14:21:03;;;;;;;4.22;2.40;;;;;;;;;;5094636;28;20028;-66
2021/08/15 14:23:29;;;;;;;4.32;2.38;;;;;;;;;;5095254;28;20016;-66
2021/08/15 14:25:55;;;;;;;3.33;2.08;;;;;;;;;;5094919;28;20028;-66
2021/08/15 14:28:25;;;;;;;4.05;2.35;;;;;;;;;;5094464;28;20519;-66
2021/08/15 14:30:51;;;;;;;4.10;2.28;;;;;;;;;;5093710;28;20388;-66
2021/08/15 14:33:21;;;;;;;4.43;2.40;;;;;;;;;;5094922;28;20061;-67
2021/08/15 14:35:49;;;;;;;5.28;2.80;;;;;;;;;;5095045;28;20024;-67
2021/08/15 14:38:15;;;;;;;4.03;2.40;;;;;;;;;;5094698;28;20373;-67
2021/08/15 14:40:42;;;;;;;4.38;2.10;;;;;;;;;;5094267;28;20020;-66
2021/08/15 14:43:08;;;;;;;3.60;2.08;;;;;;;;;;5094810;28;20030;-67
2021/08/15 14:45:34;;;;;;;3.38;2.22;;;;;;;;;;5094491;28;20031;-66
2021/08/15 14:48:00;;;;;;;3.95;2.17;;;;;;;;;;5094036;28;20089;-66
2021/08/15 14:50:26;;;;;;;4.05;2.47;;;;;;;;;;5094852;28;20035;-66
2021/08/15 14:52:52;;;;;;;3.95;2.22;;;;;;;;;;5094535;28;20507;-66
2021/08/15 14:55:19;;;;;;;5.85;2.50;;;;;;;;;;5093966;28;20020;-67
2021/08/15 14:57:45;;;;;;;3.42;2.00;;;;;;;;;;5094325;28;20094;-67
2021/08/15 15:00:12;;;;;;;6.05;2.55;;;;;;;;;;5093918;28;20024;-67
2021/08/15 15:02:38;;;;;;;4.43;2.47;;;;;;;;;;5093858;28;20030;-67
2021/08/15 15:05:04;;;;;;;5.90;2.55;;;;;;;;;;5094212;28;20052;-68
2021/08/15 15:07:32;;;;;;;5.25;2.58;;;;;;;;;;5094101;28;20024;-66
2021/08/15 15:09:58;;;;;;;5.60;2.80;;;;;;;;;;5092651;28;20383;-67
2021/08/15 15:12:24;;;;;;;5.38;2.35;;;;;;;;;;5094379;28;20039;-66
2021/08/15 15:14:51;;;;;;;7.13;2.17;;;;;;;;;;5094487;28;20020;-66
2021/08/15 15:17:17;;;;;;;3.58;1.92;;;;;;;;;;5093744;28;20031;-67
2021/08/15 15:19:43;;;;;;;6.35;2.30;;;;;;;;;;5092611;28;20433;-66
2021/08/15 15:22:09;;;;;;;3.60;2.42;;;;;;;;;;5093962;28;20138;-66
2021/08/15 15:24:36;;;;;;;4.72;2.10;;;;;;;;;;5093497;28;20103;-66
2021/08/15 15:27:02;;;;;;;3.97;1.88;;;;;;;;;;5093819;28;20039;-66
2021/08/15 15:29:29;;;;;;;3.20;2.00;;;;;;;;;;5093856;28;20038;-66